Time;durP1;ratioP1;P1;durP2;ratioP2;P2;SDS_P1;SDS_P2;PMS_P1;PMS_P2;Temp;Humidity;BMP_temperature;BMP_pressure;BME280_temperature;BME280_humidity;BME280_pressure;Samples;Min_cycle;Max_cycle;Signal;HPM_P1;HPM_P2
2022/11/03 00:00:53;;;;;;;8.67;5.00;;;7.70;99.90;;;;;;4957854;28;20658;-67
2022/11/03 00:03:18;;;;;;;11.47;5.43;;;7.70;99.90;;;;;;4958328;28;20228;-66
2022/11/03 00:08:28;;;;;;;12.60;5.10;;;7.70;99.90;;;;;;4953217;28;20588;-65
2022/11/03 00:11:11;;;;;;;10.10;5.00;;;7.70;99.90;;;;;;4957941;28;20704;-65
2022/11/03 00:13:38;;;;;;;11.63;5.17;;;7.70;99.90;;;;;;4953411;28;20944;-66
2022/11/03 00:16:05;;;;;;;7.60;4.63;;;7.60;99.90;;;;;;4958082;28;20268;-65
2022/11/03 00:18:30;;;;;;;7.53;4.93;;;7.60;99.90;;;;;;4956136;28;20214;-64
2022/11/03 00:21:01;;;;;;;5.97;4.37;;;7.60;99.90;;;;;;4957725;28;20744;-66
2022/11/03 00:23:31;;;;;;;5.07;3.87;;;7.60;99.90;;;;;;4956697;28;20218;-65
2022/11/03 00:26:12;;;;;;;8.30;4.97;;;7.60;99.90;;;;;;4954285;28;20620;-65
2022/11/03 00:28:39;;;;;;;8.03;4.87;;;7.60;99.90;;;;;;4946616;28;20284;-65
2022/11/03 00:31:09;;;;;;;6.83;4.43;;;7.50;99.90;;;;;;4948110;28;20205;-65
2022/11/03 00:33:35;;;;;;;9.07;4.73;;;7.50;99.90;;;;;;4947291;28;20238;-65
2022/11/03 00:36:01;;;;;;;8.43;4.67;;;7.50;99.90;;;;;;4945901;28;20216;-64
2022/11/03 00:38:27;;;;;;;7.07;4.60;;;7.60;99.90;;;;;;4945211;28;20574;-64
2022/11/03 00:40:58;;;;;;;5.93;4.10;;;7.60;99.90;;;;;;4948396;28;20221;-64
2022/11/03 00:43:25;;;;;;;7.73;4.60;;;7.60;99.90;;;;;;4949145;28;20230;-65
2022/11/03 00:45:50;;;;;;;6.70;4.30;;;7.50;99.90;;;;;;4946354;28;20241;-64
2022/11/03 00:48:28;;;;;;;8.90;4.03;;;7.60;99.90;;;;;;4948241;28;20230;-64
2022/11/03 00:51:14;;;;;;;8.13;4.33;;;7.60;99.90;;;;;;4947834;28;20221;-64
2022/11/03 00:53:43;;;;;;;5.20;3.70;;;7.50;99.90;;;;;;4934018;28;20797;-65
2022/11/03 00:56:15;;;;;;;4.43;3.43;;;7.50;99.90;;;;;;4949176;28;20225;-64
2022/11/03 00:58:41;;;;;;;7.53;4.43;;;7.50;99.90;;;;;;4942907;28;20692;-64
2022/11/03 01:01:10;;;;;;;10.00;3.93;;;7.50;99.90;;;;;;4947629;28;20608;-65
2022/11/03 01:03:38;;;;;;;6.80;3.93;;;7.50;99.90;;;;;;4947601;28;20297;-64
2022/11/03 01:08:53;;;;;;;9.53;3.90;;;7.40;99.90;;;;;;4944449;28;20259;-65
2022/11/03 01:14:05;;;;;;;6.67;3.77;;;7.50;99.90;;;;;;4945672;28;20214;-64
2022/11/03 01:16:31;;;;;;;6.63;3.53;;;7.50;99.90;;;;;;4947509;28;20218;-65
2022/11/03 01:18:57;;;;;;;9.97;3.80;;;7.40;99.90;;;;;;4945896;28;20711;-64
2022/11/03 01:21:23;;;;;;;7.97;3.90;;;7.40;99.90;;;;;;4948322;28;20652;-64
2022/11/03 01:23:48;;;;;;;7.77;3.50;;;7.40;99.90;;;;;;4950554;28;20209;-64
2022/11/03 01:26:14;;;;;;;9.37;3.80;;;7.40;99.90;;;;;;4945520;28;20863;-65
2022/11/03 01:28:42;;;;;;;6.23;3.70;;;7.40;99.90;;;;;;4948097;28;20546;-65
2022/11/03 01:31:21;;;;;;;5.97;4.10;;;7.40;99.90;;;;;;4944721;28;20545;-65
2022/11/03 01:33:49;;;;;;;10.80;4.00;;;7.40;99.90;;;;;;4949357;28;20470;-65
2022/11/03 01:36:16;;;;;;;7.90;3.37;;;7.40;99.90;;;;;;4945751;28;20254;-65
2022/11/03 01:38:42;;;;;;;9.20;3.73;;;7.50;99.90;;;;;;4949801;28;20249;-64
2022/11/03 01:41:14;;;;;;;12.27;3.93;;;7.50;99.90;;;;;;4951698;28;20242;-65
2022/11/03 01:43:40;;;;;;;6.00;3.20;;;7.50;99.90;;;;;;4953737;28;20656;-65
2022/11/03 01:46:26;;;;;;;8.43;4.10;;;7.50;99.90;;;;;;4949513;28;20212;-64
2022/11/03 01:49:18;;;;;;;10.40;3.50;;;7.50;99.90;;;;;;4949662;28;20695;-64
2022/11/03 01:51:47;;;;;;;4.83;3.50;;;7.50;99.90;;;;;;4945239;28;20669;-65
2022/11/03 01:54:17;;;;;;;10.67;3.80;;;7.50;99.90;;;;;;4951053;28;20228;-66
2022/11/03 01:56:47;;;;;;;7.47;3.20;;;7.50;99.90;;;;;;4948961;28;20628;-64
2022/11/03 01:59:15;;;;;;;3.87;3.50;;;7.50;99.90;;;;;;4950607;28;20205;-65
2022/11/03 02:01:42;;;;;;;5.70;3.43;;;7.50;99.90;;;;;;4950363;28;20738;-65
2022/11/03 02:04:19;;;;;;;7.67;3.07;;;7.50;99.90;;;;;;4950564;28;20213;-66
2022/11/03 02:06:51;;;;;;;5.90;2.93;;;7.50;99.90;;;;;;4942941;28;20206;-65
2022/11/03 02:09:18;;;;;;;4.87;2.57;;;7.50;99.90;;;;;;4950714;28;20213;-64
2022/11/03 02:14:27;;;;;;;6.77;2.60;;;7.40;99.90;;;;;;4943109;28;20239;-64
2022/11/03 02:16:56;;;;;;;5.80;3.00;;;7.40;99.90;;;;;;4960127;28;20233;-63
2022/11/03 02:19:32;;;;;;;5.00;3.00;;;7.40;99.90;;;;;;4958407;28;20214;-63
2022/11/03 02:22:21;;;;;;;8.13;3.43;;;7.50;99.90;;;;;;4959628;28;20205;-64
2022/11/03 02:24:51;;;;;;;6.17;3.20;;;7.50;99.90;;;;;;4960279;28;20223;-64
2022/11/03 02:27:17;;;;;;;5.67;3.30;;;7.40;99.90;;;;;;4960038;28;20742;-64
2022/11/03 02:29:43;;;;;;;4.90;3.13;;;7.40;99.90;;;;;;4955704;28;20236;-63
2022/11/03 02:32:18;;;;;;;6.50;3.00;;;7.40;99.90;;;;;;4952571;28;20247;-64
2022/11/03 02:34:54;;;;;;;12.87;2.80;;;7.40;99.90;;;;;;4955408;28;20219;-64
2022/11/03 02:37:27;;;;;;;7.13;3.03;;;7.40;99.90;;;;;;4957793;28;20198;-63
2022/11/03 02:40:03;;;;;;;6.17;3.27;;;7.40;99.90;;;;;;4959890;28;20659;-63
2022/11/03 02:42:30;;;;;;;7.50;3.30;;;7.40;99.90;;;;;;4941975;28;20201;-63
2022/11/03 02:44:59;;;;;;;4.60;2.90;;;7.40;99.90;;;;;;4959165;28;20517;-63
2022/11/03 02:47:28;;;;;;;6.70;2.63;;;7.40;99.90;;;;;;4959272;28;20201;-64
2022/11/03 02:49:54;;;;;;;7.27;2.80;;;7.30;99.90;;;;;;4959966;28;20221;-65
2022/11/03 02:52:40;;;;;;;9.50;2.77;;;7.30;99.90;;;;;;4959477;28;20296;-65
2022/11/03 02:55:09;;;;;;;4.50;2.37;;;7.30;99.90;;;;;;4959549;28;20233;-66
2022/11/03 02:57:39;;;;;;;7.27;2.67;;;7.30;99.90;;;;;;4960000;28;20212;-67
2022/11/03 03:00:06;;;;;;;3.83;2.60;;;7.30;99.90;;;;;;4959659;28;20571;-64
2022/11/03 03:02:41;;;;;;;4.13;2.70;;;7.30;99.90;;;;;;4959439;28;20229;-65
2022/11/03 03:05:09;;;;;;;3.70;2.23;;;7.30;99.90;;;;;;4959822;28;20640;-64
2022/11/03 03:07:40;;;;;;;7.37;3.30;;;7.30;99.90;;;;;;4957776;28;20213;-64
2022/11/03 03:10:10;;;;;;;10.23;3.40;;;7.30;99.90;;;;;;4958324;28;20220;-64
2022/11/03 03:12:39;;;;;;;4.63;3.17;;;7.30;99.90;;;;;;4941920;28;20297;-65
2022/11/03 03:15:07;;;;;;;8.07;2.87;;;7.30;99.90;;;;;;4958938;28;20215;-64
2022/11/03 03:17:53;;;;;;;4.87;2.83;;;7.30;99.90;;;;;;4958933;28;20206;-63
2022/11/03 03:20:22;;;;;;;6.03;2.83;;;7.20;99.90;;;;;;4956778;28;20244;-63
2022/11/03 03:22:54;;;;;;;3.23;2.33;;;7.20;99.90;;;;;;4958821;28;20650;-65
2022/11/03 03:25:37;;;;;;;5.33;2.53;;;7.20;99.90;;;;;;4954275;28;20213;-64
2022/11/03 03:28:31;;;;;;;5.27;3.13;;;7.20;99.90;;;;;;4958814;28;20297;-64
2022/11/03 03:30:59;;;;;;;5.90;3.07;;;7.20;99.90;;;;;;4950812;28;20573;-64
2022/11/03 03:33:27;;;;;;;7.50;3.07;;;7.20;99.90;;;;;;4951954;28;20205;-63
2022/11/03 03:35:54;;;;;;;3.93;3.30;;;7.20;99.90;;;;;;4946224;28;20214;-65
2022/11/03 03:38:24;;;;;;;7.27;3.27;;;7.20;99.90;;;;;;4947309;28;20206;-64
2022/11/03 03:40:53;;;;;;;6.27;2.87;;;7.20;99.90;;;;;;4949141;28;20377;-63
2022/11/03 03:43:22;;;;;;;7.80;3.47;;;7.20;99.90;;;;;;4949477;28;20249;-63
2022/11/03 03:45:51;;;;;;;5.80;2.83;;;7.20;99.90;;;;;;4947269;28;20705;-63
2022/11/03 03:48:17;;;;;;;5.33;2.97;;;7.20;99.90;;;;;;4948920;28;20229;-64
2022/11/03 03:50:45;;;;;;;8.53;3.30;;;7.20;99.90;;;;;;4950510;28;20279;-64
2022/11/03 03:53:14;;;;;;;6.80;3.07;;;7.10;99.90;;;;;;4956430;28;20248;-63
2022/11/03 03:55:42;;;;;;;6.60;3.73;;;7.00;99.90;;;;;;4958663;28;20216;-63
2022/11/03 03:58:12;;;;;;;4.73;2.80;;;7.00;99.90;;;;;;4958354;28;20209;-64
2022/11/03 04:00:38;;;;;;;3.60;2.60;;;7.00;99.90;;;;;;4958638;28;20220;-63
2022/11/03 04:03:05;;;;;;;7.47;3.00;;;7.00;99.90;;;;;;4958670;28;20209;-64
2022/11/03 04:05:31;;;;;;;8.90;4.17;;;7.00;99.90;;;;;;4949621;28;20205;-64
2022/11/03 04:07:57;;;;;;;5.00;3.03;;;7.00;99.90;;;;;;4947567;28;20703;-63
2022/11/03 04:10:23;;;;;;;6.77;3.07;;;7.00;99.90;;;;;;4948470;28;20205;-63
2022/11/03 04:22:15;;;;;;;5.00;2.80;;;7.00;99.90;;;;;;4940615;28;20209;-64
2022/11/03 04:23:56;;;;;;;4.90;3.50;;;7.00;99.90;;;;;;4943746;28;20672;-64
2022/11/03 04:26:22;;;;;;;7.20;3.27;;;7.00;99.90;;;;;;4948579;28;20201;-64
2022/11/03 04:28:49;;;;;;;5.80;3.57;;;7.00;99.90;;;;;;4947015;28;20206;-64
2022/11/03 04:31:17;;;;;;;5.83;2.87;;;7.00;99.90;;;;;;4948017;28;20236;-64
2022/11/03 04:33:43;;;;;;;3.77;2.53;;;7.00;99.90;;;;;;4947936;28;20285;-64
2022/11/03 04:36:17;;;;;;;9.77;3.63;;;7.00;99.90;;;;;;4947579;28;20297;-64
2022/11/03 04:38:43;;;;;;;7.73;3.10;;;7.00;99.90;;;;;;4939671;28;20317;-64
2022/11/03 04:41:16;;;;;;;10.03;3.23;;;7.00;99.90;;;;;;4948159;28;20220;-64
2022/11/03 04:43:44;;;;;;;6.17;3.60;;;6.90;99.90;;;;;;4948524;28;20557;-64
2022/11/03 04:46:11;;;;;;;6.37;3.43;;;6.90;99.90;;;;;;4947731;28;20336;-64
2022/11/03 04:48:37;;;;;;;9.07;3.37;;;7.00;99.90;;;;;;4947651;28;20628;-64
2022/11/03 04:51:15;;;;;;;5.93;3.13;;;7.00;99.90;;;;;;4947623;28;20208;-64
2022/11/03 04:53:47;;;;;;;6.50;2.83;;;7.00;99.90;;;;;;4947654;28;20316;-64
2022/11/03 04:56:16;;;;;;;5.13;2.73;;;7.10;99.90;;;;;;4939381;28;20245;-65
2022/11/03 04:58:41;;;;;;;5.83;2.67;;;7.10;99.90;;;;;;4948688;28;20293;-67
2022/11/03 05:01:12;;;;;;;4.97;2.63;;;7.10;99.90;;;;;;4942656;28;20360;-65
2022/11/03 05:03:39;;;;;;;5.60;2.83;;;7.00;99.90;;;;;;4948713;28;20347;-65
2022/11/03 05:06:21;;;;;;;4.97;3.10;;;7.00;99.90;;;;;;4937879;28;20205;-65
2022/11/03 05:08:54;;;;;;;7.37;3.10;;;7.00;99.90;;;;;;4939524;28;20229;-64
2022/11/03 05:11:44;;;;;;;7.20;3.43;;;7.00;99.90;;;;;;4944510;28;20617;-65
2022/11/03 05:14:21;;;;;;;7.87;3.10;;;7.00;99.90;;;;;;4944201;28;20210;-64
2022/11/03 05:16:48;;;;;;;5.67;3.93;;;7.00;99.90;;;;;;4946701;28;20221;-64
2022/11/03 05:19:19;;;;;;;5.33;4.00;;;7.00;99.90;;;;;;4950434;28;20231;-65
2022/11/03 05:21:48;;;;;;;5.17;3.30;;;6.90;99.90;;;;;;4946941;28;20683;-65
2022/11/03 05:24:14;;;;;;;5.17;3.60;;;6.90;99.90;;;;;;4948907;28;20445;-65
2022/11/03 05:26:40;;;;;;;8.47;3.33;;;6.90;99.90;;;;;;4956262;28;20739;-65
2022/11/03 05:29:21;;;;;;;6.77;3.13;;;7.00;99.90;;;;;;4951777;28;20698;-65
2022/11/03 05:31:47;;;;;;;9.97;3.77;;;7.00;99.90;;;;;;4950690;28;20252;-65
2022/11/03 05:34:41;;;;;;;6.63;4.20;;;7.00;99.90;;;;;;4953772;28;20201;-64
2022/11/03 05:37:06;;;;;;;4.40;3.13;;;7.00;99.90;;;;;;4946467;28;20633;-65
2022/11/03 05:39:39;;;;;;;8.23;3.20;;;7.00;99.90;;;;;;4950694;28;20506;-64
2022/11/03 05:42:21;;;;;;;9.37;3.87;;;7.00;99.90;;;;;;4949077;28;20268;-64
2022/11/03 05:44:48;;;;;;;10.73;4.13;;;7.00;99.90;;;;;;4950945;28;20209;-64
2022/11/03 05:47:26;;;;;;;6.47;4.13;;;7.00;99.90;;;;;;4949280;28;20293;-63
2022/11/03 05:49:59;;;;;;;6.50;3.80;;;7.00;99.90;;;;;;4952884;28;20210;-64
2022/11/03 05:52:26;;;;;;;6.27;3.50;;;7.00;99.90;;;;;;4949689;28;20582;-64
2022/11/03 05:54:54;;;;;;;6.87;3.80;;;6.90;99.90;;;;;;4946307;28;20921;-64
2022/11/03 05:57:20;;;;;;;9.93;4.80;;;6.90;99.90;;;;;;4949667;28;20205;-64
2022/11/03 05:59:48;;;;;;;4.30;3.43;;;6.90;99.90;;;;;;4947575;28;20200;-64
2022/11/03 06:02:42;;;;;;;10.33;3.83;;;6.90;99.90;;;;;;4949558;28;20262;-63
2022/11/03 06:05:21;;;;;;;8.00;3.30;;;6.90;99.90;;;;;;4932446;28;20506;-64
2022/11/03 06:07:52;;;;;;;7.20;3.90;;;6.90;99.90;;;;;;4945949;28;20296;-64
2022/11/03 06:10:32;;;;;;;7.77;3.77;;;6.90;99.90;;;;;;4949071;28;20229;-64
2022/11/03 06:13:04;;;;;;;8.87;4.37;;;6.90;99.90;;;;;;4947460;28;20210;-64
2022/11/03 06:15:33;;;;;;;7.07;4.07;;;6.90;99.90;;;;;;4949682;28;20381;-65
2022/11/03 06:18:00;;;;;;;7.97;4.23;;;6.90;99.90;;;;;;4950728;28;20269;-65
2022/11/03 06:20:27;;;;;;;6.33;3.90;;;6.90;99.90;;;;;;4934062;28;20217;-65
2022/11/03 06:22:55;;;;;;;9.83;5.17;;;6.90;99.90;;;;;;4948385;28;20206;-64
2022/11/03 06:25:34;;;;;;;7.43;4.20;;;6.90;99.90;;;;;;4949988;28;20213;-65
2022/11/03 06:28:05;;;;;;;5.33;4.07;;;6.90;99.90;;;;;;4949677;28;20714;-64
2022/11/03 06:30:33;;;;;;;7.00;3.90;;;6.80;99.90;;;;;;4953127;28;20297;-64
2022/11/03 06:33:12;;;;;;;5.40;4.33;;;6.80;99.90;;;;;;4946704;28;20202;-64
2022/11/03 06:35:37;;;;;;;8.63;4.67;;;6.70;99.90;;;;;;4950584;28;20267;-67
2022/11/03 06:38:11;;;;;;;14.47;6.17;;;6.70;99.90;;;;;;4947776;28;20210;-66
2022/11/03 06:40:38;;;;;;;9.60;4.33;;;6.70;99.90;;;;;;4949670;28;20213;-64
2022/11/03 06:43:15;;;;;;;9.87;5.33;;;6.70;99.90;;;;;;4949505;28;20194;-65
2022/11/03 06:45:49;;;;;;;9.83;5.37;;;6.80;99.90;;;;;;4945061;28;20224;-64
2022/11/03 06:48:21;;;;;;;7.37;5.63;;;6.80;99.90;;;;;;4947765;28;20212;-65
2022/11/03 06:50:46;;;;;;;6.43;4.57;;;6.80;99.90;;;;;;4941235;28;20210;-64
2022/11/03 06:53:20;;;;;;;11.53;4.87;;;6.90;99.90;;;;;;4948753;28;20220;-64
2022/11/03 06:55:47;;;;;;;9.07;4.67;;;6.90;99.90;;;;;;4949454;28;20491;-63
2022/11/03 06:58:15;;;;;;;7.83;4.87;;;6.90;99.90;;;;;;4927344;29;20210;-63
2022/11/03 07:00:42;;;;;;;10.60;5.90;;;7.00;99.90;;;;;;4938806;28;20249;-63
2022/11/03 07:03:15;;;;;;;10.87;5.37;;;7.10;99.90;;;;;;4940478;28;20260;-63
2022/11/03 07:05:41;;;;;;;6.37;4.50;;;7.20;99.90;;;;;;4944760;28;20277;-63
2022/11/03 07:08:23;;;;;;;10.70;4.80;;;7.40;99.90;;;;;;4949341;28;20204;-63
2022/11/03 07:10:55;;;;;;;10.60;4.90;;;7.40;99.90;;;;;;4946651;28;20571;-63
2022/11/03 07:13:23;;;;;;;11.63;5.40;;;7.50;99.90;;;;;;4948196;28;20208;-63
2022/11/03 07:15:49;;;;;;;12.80;5.40;;;7.50;99.90;;;;;;4941551;28;20207;-64
2022/11/03 07:18:22;;;;;;;9.47;4.37;;;7.70;99.90;;;;;;4949690;28;20213;-63
2022/11/03 07:20:49;;;;;;;6.17;4.73;;;7.70;99.90;;;;;;4949185;28;20221;-64
2022/11/03 07:23:19;;;;;;;11.37;4.37;;;7.70;99.90;;;;;;4949800;28;20198;-64
2022/11/03 07:25:52;;;;;;;8.93;5.27;;;7.80;99.90;;;;;;4945100;28;20331;-65
2022/11/03 07:28:17;;;;;;;8.20;4.90;;;7.90;99.90;;;;;;4948525;28;20202;-63
2022/11/03 07:30:43;;;;;;;7.27;4.43;;;7.90;99.90;;;;;;4933991;28;20206;-64
2022/11/03 07:33:15;;;;;;;12.70;4.40;;;8.00;99.90;;;;;;4942621;28;20593;-63
2022/11/03 07:35:42;;;;;;;4.47;3.67;;;8.00;99.90;;;;;;4949371;28;20215;-64
2022/11/03 07:38:12;;;;;;;6.23;4.17;;;8.10;99.90;;;;;;4950994;28;20720;-64
2022/11/03 07:40:38;;;;;;;7.33;4.03;;;8.10;99.90;;;;;;4949352;28;20221;-63
2022/11/03 07:43:24;;;;;;;12.53;5.10;;;8.20;99.90;;;;;;4946930;28;20269;-63
2022/11/03 07:45:51;;;;;;;7.50;4.40;;;8.20;99.90;;;;;;4948763;28;20690;-63
2022/11/03 07:48:23;;;;;;;6.97;3.87;;;8.20;99.90;;;;;;4947055;28;20221;-63
2022/11/03 07:50:50;;;;;;;11.20;4.93;;;8.30;99.90;;;;;;4949158;28;20210;-63
2022/11/03 07:53:23;;;;;;;9.47;4.83;;;8.30;99.90;;;;;;4949351;28;20221;-64
2022/11/03 07:55:59;;;;;;;8.13;4.10;;;8.40;99.90;;;;;;5052929;28;21301;-63
2022/11/03 07:58:37;;;;;;;9.27;4.00;;;8.50;99.90;;;;;;5053533;28;20279;-64
2022/11/03 08:01:18;;;;;;;9.90;3.60;;;8.50;99.90;;;;;;5051595;28;20202;-64
2022/11/03 08:03:46;;;;;;;9.13;4.13;;;8.60;99.90;;;;;;5053394;28;20202;-63
2022/11/03 08:06:12;;;;;;;6.93;4.50;;;8.60;99.90;;;;;;5048480;28;20763;-64
2022/11/03 08:08:37;;;;;;;8.33;4.10;;;8.60;99.90;;;;;;5052797;28;20207;-64
2022/11/03 08:11:04;;;;;;;8.00;3.93;;;8.70;99.90;;;;;;5053000;28;20210;-65
2022/11/03 08:13:30;;;;;;;7.80;4.10;;;8.70;99.90;;;;;;5053197;28;20372;-62
2022/11/03 08:15:56;;;;;;;8.27;4.40;;;8.70;99.90;;;;;;5053117;28;20680;-62
2022/11/03 08:18:21;;;;;;;7.53;3.90;;;8.70;99.90;;;;;;5050925;28;20225;-63
2022/11/03 08:20:47;;;;;;;7.50;3.50;;;8.70;99.90;;;;;;5052937;28;20324;-62
2022/11/03 08:23:12;;;;;;;8.83;3.90;;;8.70;99.90;;;;;;5052680;28;20202;-63
2022/11/03 08:25:38;;;;;;;5.40;3.20;;;8.70;99.90;;;;;;5051651;28;20198;-63
2022/11/03 08:28:03;;;;;;;11.00;3.63;;;8.80;99.90;;;;;;5052699;28;20198;-63
2022/11/03 08:30:29;;;;;;;6.33;3.30;;;8.80;99.90;;;;;;5049435;28;20243;-62
2022/11/03 08:32:55;;;;;;;6.23;3.90;;;8.90;99.90;;;;;;5052967;28;20321;-62
2022/11/03 08:35:20;;;;;;;8.57;4.23;;;8.90;99.90;;;;;;5052374;28;20210;-63
2022/11/03 08:37:46;;;;;;;7.33;4.10;;;8.90;99.90;;;;;;5052868;28;20399;-63
2022/11/03 08:40:12;;;;;;;5.80;3.70;;;9.00;99.90;;;;;;5052453;28;20234;-63
2022/11/03 08:42:38;;;;;;;6.73;3.53;;;9.00;99.90;;;;;;5050874;28;20210;-64
2022/11/03 08:45:04;;;;;;;8.33;3.70;;;9.00;99.90;;;;;;5052603;28;20203;-64
2022/11/03 08:47:29;;;;;;;6.87;3.90;;;9.00;99.90;;;;;;5052111;28;20950;-63
2022/11/03 08:49:55;;;;;;;7.20;4.73;;;9.10;99.90;;;;;;5052621;28;20231;-64
2022/11/03 08:52:20;;;;;;;8.77;4.57;;;9.10;99.90;;;;;;5052375;28;20700;-64
2022/11/03 08:54:46;;;;;;;7.50;4.47;;;9.20;99.90;;;;;;5041081;28;20230;-63
2022/11/03 08:57:11;;;;;;;6.37;3.60;;;9.30;99.90;;;;;;5040665;28;20286;-76
2022/11/03 08:59:37;;;;;;;9.90;4.50;;;9.40;99.90;;;;;;5040173;28;20218;-76
2022/11/03 09:02:03;;;;;;;8.57;4.23;;;9.50;99.90;;;;;;5037245;28;20225;-73
2022/11/03 09:04:28;;;;;;;5.37;3.30;;;9.60;99.90;;;;;;5042315;28;20210;-77
2022/11/03 09:06:54;;;;;;;10.47;4.10;;;9.70;99.90;;;;;;5027239;28;20204;-75
2022/11/03 09:09:20;;;;;;;7.60;3.83;;;9.80;99.90;;;;;;5028013;28;20200;-74
2022/11/03 09:11:46;;;;;;;7.23;3.07;;;9.80;99.90;;;;;;5027053;28;20200;-74
2022/11/03 09:14:12;;;;;;;7.90;3.47;;;9.90;99.90;;;;;;5028472;28;20225;-73
2022/11/03 09:16:37;;;;;;;6.97;3.17;;;10.00;99.90;;;;;;5025136;28;20307;-74
2022/11/03 09:19:03;;;;;;;9.30;3.10;;;10.10;99.90;;;;;;5029426;28;20247;-73
2022/11/03 09:21:28;;;;;;;7.30;2.57;;;10.10;99.90;;;;;;5034095;28;20247;-74
2022/11/03 09:23:54;;;;;;;5.90;3.03;;;10.30;99.90;;;;;;5028875;28;20200;-73
2022/11/03 09:26:19;;;;;;;6.17;3.07;;;10.40;99.90;;;;;;5024928;28;20206;-72
2022/11/03 09:28:45;;;;;;;7.20;2.67;;;10.40;99.90;;;;;;5029536;28;20670;-74
2022/11/03 09:31:10;;;;;;;5.07;2.90;;;10.50;99.90;;;;;;5023421;28;20346;-73
2022/11/03 09:33:36;;;;;;;4.47;2.77;;;10.60;99.90;;;;;;5031405;28;20202;-71
2022/11/03 09:36:01;;;;;;;5.80;3.10;;;10.60;99.90;;;;;;5026261;28;20204;-75
2022/11/03 09:38:27;;;;;;;8.20;3.13;;;10.80;99.90;;;;;;5026131;28;20723;-75
2022/11/03 09:40:53;;;;;;;6.00;2.93;;;10.90;99.90;;;;;;5029310;28;20202;-75
2022/11/03 09:43:19;;;;;;;4.87;3.13;;;11.00;99.90;;;;;;5032909;28;20200;-76
2022/11/03 09:45:45;;;;;;;6.70;4.17;;;11.00;99.90;;;;;;5032362;28;20669;-78
2022/11/03 09:48:12;;;;;;;5.27;3.23;;;11.10;99.90;;;;;;5032507;28;20245;-78
2022/11/03 09:50:38;;;;;;;7.90;3.40;;;11.10;99.90;;;;;;5032399;28;20214;-77
2022/11/03 09:53:04;;;;;;;10.17;3.97;;;11.20;99.90;;;;;;5035201;28;20715;-77
2022/11/03 09:55:29;;;;;;;4.17;2.97;;;11.40;99.90;;;;;;5033556;28;20286;-78
2022/11/03 09:57:59;;;;;;;5.17;2.53;;;11.40;99.90;;;;;;5034460;28;21209;-78
2022/11/03 10:00:26;;;;;;;3.37;2.37;;;11.50;99.90;;;;;;5035118;28;20208;-81
2022/11/03 10:02:53;;;;;;;3.97;2.00;;;11.70;99.90;;;;;;5035200;28;20679;-75
2022/11/03 10:05:23;;;;;;;190.30;34.53;;;11.70;99.90;;;;;;5036398;28;20212;-75
2022/11/03 10:07:51;;;;;;;11.00;2.80;;;11.90;99.90;;;;;;5034521;28;20273;-72
2022/11/03 10:10:19;;;;;;;7.13;2.33;;;12.00;99.90;;;;;;5038747;28;20219;-75
2022/11/03 10:12:47;;;;;;;5.77;2.83;;;12.10;99.90;;;;;;5042479;28;20434;-72
2022/11/03 10:15:17;;;;;;;7.77;3.33;;;12.20;99.90;;;;;;5027867;28;20300;-75
2022/11/03 10:17:45;;;;;;;8.47;2.70;;;12.30;99.90;;;;;;5035861;28;20679;-75
2022/11/03 10:20:16;;;;;;;6.73;2.27;;;12.40;99.90;;;;;;5036809;28;20735;-75
2022/11/03 10:22:43;;;;;;;5.67;3.13;;;12.60;99.90;;;;;;5034820;28;20484;-75
2022/11/03 10:25:41;;;;;;;4.07;2.20;;;12.70;99.90;;;;;;5040720;28;20202;-75
2022/11/03 10:28:13;;;;;;;4.63;2.70;;;12.70;99.90;;;;;;5034353;28;20285;-78
2022/11/03 10:30:49;;;;;;;5.10;2.77;;;12.70;99.90;;;;;;5034467;28;20478;-76
2022/11/03 10:33:31;;;;;;;4.80;2.23;;;12.80;99.90;;;;;;5035313;28;20230;-73
2022/11/03 10:36:00;;;;;;;5.47;2.53;;;12.80;99.90;;;;;;5034790;28;20669;-75
2022/11/03 10:38:27;;;;;;;8.60;3.90;;;12.80;99.90;;;;;;5030662;28;20198;-73
2022/11/03 10:40:54;;;;;;;7.27;2.77;;;12.90;99.90;;;;;;5032858;28;20202;-72
2022/11/03 10:43:20;;;;;;;6.13;2.23;;;12.90;99.90;;;;;;5037154;28;20202;-78
2022/11/03 10:45:47;;;;;;;6.60;2.70;;;13.00;99.90;;;;;;5037257;28;20206;-78
2022/11/03 10:48:12;;;;;;;3.63;2.30;;;13.00;99.90;;;;;;5034077;28;21144;-74
2022/11/03 10:50:39;;;;;;;5.53;2.20;;;13.10;99.90;;;;;;5026885;28;20296;-72
2022/11/03 10:53:05;;;;;;;7.87;2.77;;;13.20;99.90;;;;;;5024116;28;20596;-77
2022/11/03 10:55:31;;;;;;;6.70;2.87;;;13.20;99.90;;;;;;5028713;28;21048;-81
2022/11/03 10:57:57;;;;;;;3.60;2.47;;;13.20;99.90;;;;;;5034132;28;20202;-72
2022/11/03 11:00:23;;;;;;;4.47;2.17;;;13.10;99.90;;;;;;5031736;28;20199;-75
2022/11/03 11:02:55;;;;;;;6.23;2.73;;;13.10;99.90;;;;;;5036518;28;20258;-72
2022/11/03 11:05:23;;;;;;;4.53;2.07;;;13.20;99.90;;;;;;5021484;28;20207;-72
2022/11/03 11:07:51;;;;;;;5.03;1.83;;;13.20;99.90;;;;;;5035297;28;20238;-72
2022/11/03 11:10:21;;;;;;;5.37;2.10;;;13.30;99.90;;;;;;5034213;28;20252;-72
2022/11/03 11:13:15;;;;;;;5.80;2.40;;;13.30;99.90;;;;;;5033264;28;20214;-73
2022/11/03 11:15:49;;;;;;;4.83;2.50;;;13.30;99.90;;;;;;5033681;28;20246;-73
2022/11/03 11:18:37;;;;;;;7.13;2.97;;;13.30;99.90;;;;;;5031827;28;20301;-70
2022/11/03 11:21:14;;;;;;;5.03;2.47;;;13.30;99.90;;;;;;5028871;28;20207;-76
2022/11/03 11:23:40;;;;;;;6.77;2.57;;;13.20;99.90;;;;;;5034972;28;20201;-72
2022/11/03 11:26:09;;;;;;;4.77;2.17;;;13.20;99.90;;;;;;5034076;28;20198;-72
2022/11/03 11:28:42;;;;;;;5.47;2.10;;;13.30;99.90;;;;;;5026328;28;20709;-71
2022/11/03 11:31:30;;;;;;;4.73;2.27;;;13.20;99.90;;;;;;5025031;28;20191;-71
2022/11/03 11:34:08;;;;;;;3.90;1.87;;;13.20;99.90;;;;;;5025263;28;20670;-71
2022/11/03 11:36:41;;;;;;;5.50;2.57;;;13.20;99.90;;;;;;5026458;28;20218;-72
2022/11/03 11:39:32;;;;;;;5.73;2.73;;;13.20;99.90;;;;;;5036288;28;20207;-78
2022/11/03 11:42:16;;;;;;;7.10;2.47;;;13.20;99.90;;;;;;5033201;28;20203;-76
2022/11/03 11:44:41;;;;;;;4.43;2.33;;;13.30;99.90;;;;;;5035713;28;20210;-72
2022/11/03 11:47:30;;;;;;;4.67;2.50;;;13.30;99.90;;;;;;5036716;28;20577;-75
2022/11/03 11:50:13;;;;;;;4.10;2.43;;;13.30;99.90;;;;;;5037333;28;20217;-77
2022/11/03 11:52:59;;;;;;;3.57;2.20;;;13.30;99.90;;;;;;5036268;28;20202;-78
2022/11/03 11:55:39;;;;;;;4.40;2.80;;;13.40;99.90;;;;;;5037740;28;20404;-74
2022/11/03 11:58:13;;;;;;;6.40;2.73;;;13.40;99.90;;;;;;5031953;28;20198;-68
2022/11/03 12:00:53;;;;;;;6.20;3.07;;;13.40;99.90;;;;;;5025299;28;20244;-69
2022/11/03 12:03:27;;;;;;;4.03;2.10;;;13.40;99.90;;;;;;5025834;28;20280;-69
2022/11/03 12:05:52;;;;;;;3.27;2.07;;;13.40;99.90;;;;;;5023556;28;20278;-69
2022/11/03 12:08:27;;;;;;;4.50;2.63;;;13.40;99.90;;;;;;5025195;28;20260;-70
2022/11/03 12:10:58;;;;;;;6.00;2.30;;;13.40;99.90;;;;;;5022253;28;20230;-70
2022/11/03 12:13:52;;;;;;;5.40;2.70;;;13.40;99.90;;;;;;5026194;28;20680;-69
2022/11/03 12:16:28;;;;;;;4.33;2.03;;;13.40;99.90;;;;;;5025174;28;20211;-70
2022/11/03 12:18:55;;;;;;;5.73;2.40;;;13.40;99.90;;;;;;5027853;28;20560;-70
2022/11/03 12:21:47;;;;;;;4.00;2.47;;;13.40;99.90;;;;;;5023211;28;20605;-71
2022/11/03 12:24:49;;;;;;;6.40;2.87;;;13.40;99.90;;;;;;5033956;28;20199;-71
2022/11/03 12:27:39;;;;;;;7.60;3.03;;;13.40;99.90;;;;;;5015955;28;20207;-70
2022/11/03 12:30:16;;;;;;;11.27;3.30;;;13.40;99.90;;;;;;5025464;28;20299;-69
2022/11/03 12:32:41;;;;;;;5.57;2.13;;;13.50;99.90;;;;;;5027420;28;20556;-71
2022/11/03 12:35:08;;;;;;;4.57;2.43;;;13.50;99.90;;;;;;5030436;28;20685;-69
2022/11/03 12:37:34;;;;;;;6.03;2.53;;;13.50;99.90;;;;;;5033704;28;20191;-69
2022/11/03 12:39:59;;;;;;;3.00;2.20;;;13.50;99.90;;;;;;5034304;28;20746;-70
2022/11/03 12:42:25;;;;;;;4.83;2.73;;;13.60;99.90;;;;;;5030781;28;20230;-69
2022/11/03 12:44:50;;;;;;;6.70;2.30;;;13.50;99.90;;;;;;5029655;28;20604;-70
2022/11/03 12:47:16;;;;;;;5.40;2.63;;;13.50;99.90;;;;;;5029841;28;20601;-69
2022/11/03 12:49:41;;;;;;;4.07;2.27;;;13.50;99.90;;;;;;5038381;28;20225;-70
2022/11/03 12:52:07;;;;;;;7.17;1.93;;;13.60;99.90;;;;;;5026366;28;20199;-67
2022/11/03 12:54:33;;;;;;;3.40;2.40;;;13.60;99.90;;;;;;5026411;28;20219;-69
2022/11/03 12:56:58;;;;;;;8.07;2.70;;;13.70;99.90;;;;;;5032547;28;20293;-69
2022/11/03 12:59:24;;;;;;;4.93;2.47;;;13.70;99.90;;;;;;5028208;28;20200;-69
2022/11/03 13:01:49;;;;;;;4.83;2.80;;;13.60;99.90;;;;;;5027982;28;20205;-68
2022/11/03 13:04:15;;;;;;;7.50;2.70;;;13.60;99.90;;;;;;5027818;28;20194;-70
2022/11/03 13:06:40;;;;;;;4.50;2.50;;;13.60;99.90;;;;;;5025594;28;20305;-69
2022/11/03 13:09:06;;;;;;;4.47;2.53;;;13.60;99.90;;;;;;5029531;28;20191;-70
2022/11/03 13:14:16;;;;;;;5.63;2.30;;;13.80;99.90;;;;;;5037003;28;20420;-72
2022/11/03 13:16:41;;;;;;;4.87;2.57;;;13.90;99.90;;;;;;5038471;28;20639;-71
2022/11/03 13:19:09;;;;;;;7.27;2.33;;;14.00;99.90;;;;;;5039297;28;20203;-72
2022/11/03 13:21:35;;;;;;;7.80;2.63;;;14.20;99.90;;;;;;5038557;28;20742;-71
2022/11/03 13:24:00;;;;;;;4.57;2.10;;;14.40;99.90;;;;;;5026963;28;20199;-73
2022/11/03 13:26:26;;;;;;;7.27;2.83;;;14.50;99.90;;;;;;5026384;28;20199;-71
2022/11/03 13:28:51;;;;;;;3.73;2.13;;;14.70;99.90;;;;;;5029417;28;20199;-69
2022/11/03 13:31:17;;;;;;;2.80;1.80;;;14.70;99.90;;;;;;5028214;28;20192;-73